• Join FlightAware (Why Join?)
  • Login
  • US Flag 
11:44AM EDT


 

Airport Tracker/Info


-or-


 

Live Flight TrackerFlight Track Log ✈ LYM1725 ✈ 07-May-2013 ✈ KDEN - KRIW

Flight Track Log - Related Links

Times and Time Zones

All times are in EDT time to prevent confusion due to time zone crossing. See the LYM1725 flight status page for this flight to view local times or setup timezone preferences in your user account.

Time Position Orientation Groundspeed Altitude Reporting Facility
EDT Latitude Longitude Course Direction KTS MPH feet Rate Location/Type
08:34AM 39.9500 -104.6833 341° North 183 211 8,400  Level Denver TRACON
08:35AM 39.9894 -104.7050 337° Northwest 190 219 9,500 780 Climbing Denver Center
08:36AM 40.0458 -104.7281 343° North 210 242 10,000 360 Climbing Denver Center
08:37AM 40.1172 -104.7594 341° North 249 287 10,300 720 Climbing Denver Center
08:38AM 40.1808 -104.7886 341° North 244 281 11,500 1,140 Climbing Denver Center
08:39AM 40.2452 -104.8371 341° North  Level FlightAware Approximate
08:39AM 40.2397 -104.8150 341° North 227 261 12,700  Level Denver Center
08:40AM 40.2972 -104.8433 339° North 223 257 13,900 1,200 Climbing Denver Center
08:41AM 40.3481 -104.8647 342° North 195 224 15,200 1,140 Climbing Denver Center
08:42AM 40.4006 -104.8875 342° North 184 212 16,300 1,020 Climbing Denver Center
08:43AM 40.4533 -104.9089 343° North 194 223 17,300 840 Climbing Denver Center
08:44AM 40.5075 -104.9311 343° North 207 238 18,100 720 Climbing Denver Center
08:45AM 40.5628 -104.9514 344° North 208 239 18,800 840 Climbing Denver Center
08:46AM 40.6214 -104.9772 342° North 206 237 19,900 600 Climbing Denver Center
08:47AM 40.6831 -104.9975 346° North 231 266 20,100  Climbing Denver Center
08:48AM 40.7494 -105.0267 342° North 255 293 20,000 -60 Descending Denver Center
08:49AM 40.8203 -105.0600 340° North 268 308 20,000  Level Denver Center
08:50AM 40.8583 -105.1286 306° West 271 312 20,000  Level Denver Center
08:51AM 40.9092 -105.2228 306° West 271 312 20,000  Level Denver Center
08:52AM 40.9653 -105.2931 317° Northwest 276 318 20,100  Climbing Denver Center
08:53AM 41.0208 -105.3650 316° Northwest 277 319 20,100  Level Denver Center
08:54AM 41.0819 -105.4458 315° West 277 319 20,100  Level Denver Center
08:55AM 41.1289 -105.5200 310° West 275 316 20,100 -60 Level Denver Center
08:56AM 41.1778 -105.5942 311° West 279 321 20,000 -60 Descending Denver Center
08:57AM 41.2369 -105.6761 314° West 276 318 20,000  Level Denver Center
08:58AM 41.2892 -105.7458 315° West 275 316 20,000 -60 Level Denver Center
08:59AM 41.3569 -105.8417 313° West 277 319 19,900 -60 Descending Denver Center
09:00AM 41.4078 -105.9119 314° West 274 315 19,900  Level Denver Center
09:01AM 41.4594 -105.9808 315° West 275 316 20,000 60 Climbing Denver Center
09:02AM 41.5158 -106.0644 312° West 271 312 20,100  Climbing Denver Center
09:03AM 41.5644 -106.1389 311° West 276 318 20,000  Descending Denver Center
09:04AM 41.6214 -106.2211 313° West 275 316 20,100  Climbing Denver Center
09:05AM 41.6756 -106.2883 317° Northwest 271 312 20,000  Descending Denver Center
09:06AM 41.7272 -106.3575 315° West 273 314 20,100  Climbing Denver Center
09:07AM 41.7800 -106.4275 315° West 277 319 20,000 -60 Descending Denver Center
09:08AM 41.8333 -106.5111 311° West 272 313 20,000  Level Denver Center
09:09AM 41.8822 -106.5864 311° West 276 318 20,000  Level Denver Center
09:10AM 41.9372 -106.6742 310° West 277 319 20,000  Level Denver Center
09:11AM 41.9867 -106.7469 312° West 277 319 20,000  Level Denver Center
09:12AM 42.0361 -106.8203 312° West 276 318 20,000  Level Denver Center
09:14AM 42.0842 -106.8967 310° West 279 321 20,000  Level Denver Center
09:15AM 42.1389 -106.9833 310° West 274 315 20,000  Level Denver Center
09:16AM 42.1997 -107.0667 315° West 277 319 20,000  Level Denver Center
09:17AM 42.2517 -107.1406 314° West 282 325 20,000  Level Denver Center
09:18AM 42.2983 -107.2178 309° West 280 322 20,000  Level Denver Center
09:19AM 42.3550 -107.3067 311° West 283 326 20,000  Level Denver Center
09:20AM 42.4039 -107.3811 312° West 277 319 20,000  Level Denver Center
09:21AM 42.4522 -107.4569 311° West 277 319 20,000 -120 Level Denver Center
09:22AM 42.4969 -107.5369 307° West 280 322 19,800 -660 Descending Salt Lake Center
09:23AM 42.5533 -107.6117 316° Northwest 296 341 18,800 -1,200 Descending Salt Lake Center
09:24AM 42.6244 -107.6994 318° Northwest 308 354 17,400 -1,320 Descending Salt Lake Center
09:25AM 42.6767 -107.7903 308° West 315 362 16,200 -1,380 Descending Salt Lake Center
09:26AM 42.7253 -107.8836 305° West 317 365 14,700 -1,800 Descending Salt Lake Center
09:27AM 42.7881 -107.9786 312° West 309 356 12,600 -1,380 Descending Salt Lake Center
09:28AM 42.8400 -108.0556 313° West 296 341 12,000 -600 Descending Salt Lake Center